Forside
METAR-TAF:

METAR-TAF

Lufthavne :

Chariton Municipal Airport

Chariton, Iowa, USA

Breddekreds: 41-02N, længdekreds: 093-22W, højde: 320 m

Aktuelle vejr

Denne rapport blev lavet for 9 minutter siden, kl. 12:55 UTC
Vind 12 kt fra sydsydøst
Temperatur -3°C
Fugtighed 100%
Tryk 1012 hPa
Sigt: 6.4 km
Brudte skyer i en højde af 1100 ft
Brudte skyer i en højde af 1600 ft
Overskyet i en højde af 2000 ft
dis

METAR: KCNC 221255Z AUTO 16012KT 4SM BR BKN011 BKN016 OVC020 M03/M03 A2987 RMK AO2

Tid: 07:04 (13:04 UTC)


TAF: fraværende

Vejrobservationer og prognoser fra mere end 4000 lufthavne (METAR og TAF).

De gule og røde prikker repræsenterer de meteorologiske stationer.

Flyt musen over at se navnet på stationen.

Så klik over at se vejr observationer og prognoser.

At skifte det kort: Klik på de grønne knapper med et sort kors for at zoome ind; på den grønne knap med en bindestreg for at zoome ud; eller på de grønne pile for tilstødende kort.


METAR-TAF: